createdAt,value
2023-01-30T00:00:57.388Z,78.44
2023-01-30T00:01:57.422Z,78.55
2023-01-30T00:02:57.386Z,78.34
2023-01-30T00:03:57.384Z,78.55
2023-01-30T00:04:57.410Z,78.03
2023-01-30T00:05:57.345Z,78.34
2023-01-30T00:06:57.332Z,77.92
2023-01-30T00:07:57.311Z,77.82
2023-01-30T00:08:57.321Z,78.23
2023-01-30T00:09:57.455Z,78.55
2023-01-30T00:10:57.284Z,78.75
2023-01-30T00:11:57.275Z,78.03
2023-01-30T00:12:57.275Z,78.34
2023-01-30T00:13:57.306Z,78.13
2023-01-30T00:14:57.274Z,78.69
2023-01-30T00:15:57.287Z,78.65
2023-01-30T00:16:57.265Z,78.23
2023-01-30T00:17:57.228Z,78.75
2023-01-30T00:18:57.231Z,78.79
2023-01-30T00:19:57.188Z,78.69
2023-01-30T00:20:57.196Z,79.00
2023-01-30T00:21:57.163Z,79.21
2023-01-30T00:23:00.989Z,79.27
2023-01-30T00:23:57.176Z,78.86
2023-01-30T00:24:57.245Z,78.23
2023-01-30T00:25:57.128Z,78.34
2023-01-30T00:26:57.116Z,78.34
2023-01-30T00:27:57.134Z,78.65
2023-01-30T00:28:57.088Z,78.13
2023-01-30T00:30:02.823Z,78.55
2023-01-30T00:30:58.497Z,78.65
2023-01-30T00:31:57.090Z,79.06
2023-01-30T00:32:57.055Z,78.23
2023-01-30T00:33:57.045Z,78.51
2023-01-30T00:34:57.029Z,78.20
2023-01-30T00:35:57.069Z,78.20
2023-01-30T00:37:57.992Z,78.55
2023-01-30T00:38:57.010Z,78.23
2023-01-30T00:39:56.975Z,78.75
2023-01-30T00:40:56.958Z,78.65
2023-01-30T00:41:56.981Z,78.65
2023-01-30T00:42:56.945Z,78.34
2023-01-30T00:43:56.946Z,78.44
2023-01-30T00:44:56.925Z,78.69
2023-01-30T00:45:56.973Z,79.41
2023-01-30T00:46:56.901Z,79.06
2023-01-30T00:47:56.904Z,78.96
2023-01-30T00:49:06.286Z,78.89
2023-01-30T00:49:56.864Z,79.10
2023-01-30T00:50:56.886Z,79.10
2023-01-30T00:51:56.837Z,78.96
2023-01-30T00:52:56.828Z,78.48
2023-01-30T00:53:56.815Z,78.34
2023-01-30T00:54:56.802Z,78.55
2023-01-30T00:55:56.830Z,78.34
2023-01-30T00:56:56.792Z,78.34
2023-01-30T00:57:56.819Z,78.48
2023-01-30T00:58:56.764Z,78.34
2023-01-30T00:59:56.753Z,78.79
2023-01-30T01:00:56.750Z,78.79
2023-01-30T01:01:56.760Z,79.00
2023-01-30T01:02:56.760Z,79.00
2023-01-30T01:03:56.741Z,78.75
2023-01-30T01:04:56.707Z,78.48
2023-01-30T01:05:56.686Z,78.44
2023-01-30T01:06:56.694Z,78.86
2023-01-30T01:07:56.689Z,79.10
2023-01-30T01:08:56.684Z,78.58
2023-01-30T01:09:56.651Z,78.96
2023-01-30T01:10:56.635Z,78.58
2023-01-30T01:11:56.656Z,78.79
2023-01-30T01:12:56.616Z,79.31
2023-01-30T01:13:56.609Z,79.00
2023-01-30T01:14:56.593Z,79.21
2023-01-30T01:15:56.699Z,79.00
2023-01-30T01:16:56.571Z,79.10
2023-01-30T01:17:56.559Z,79.10
2023-01-30T01:18:56.580Z,78.79
2023-01-30T01:19:56.557Z,79.00
2023-01-30T01:20:56.537Z,79.21
2023-01-30T01:21:56.526Z,78.72
2023-01-30T01:22:56.526Z,79.00
2023-01-30T01:23:56.515Z,79.41
2023-01-30T01:24:56.519Z,78.79
2023-01-30T01:25:56.474Z,79.66
2023-01-30T01:26:56.476Z,79.14
2023-01-30T01:27:56.466Z,79.35
2023-01-30T01:28:56.444Z,79.31
2023-01-30T01:29:56.464Z,78.89
2023-01-30T01:30:56.454Z,79.31
2023-01-30T01:31:56.450Z,79.45
2023-01-30T01:32:56.402Z,79.00
2023-01-30T01:33:56.404Z,79.00
2023-01-30T01:34:56.413Z,79.24
2023-01-30T01:35:56.383Z,79.10
2023-01-30T01:36:56.437Z,78.72
2023-01-30T01:37:56.357Z,79.35
2023-01-30T01:38:56.354Z,79.31
2023-01-30T01:39:56.366Z,79.35
2023-01-30T01:40:56.357Z,79.35
2023-01-30T01:41:56.325Z,79.45
2023-01-30T01:42:56.307Z,79.55
2023-01-30T01:43:56.298Z,79.14
2023-01-30T01:44:56.285Z,79.66
2023-01-30T01:45:56.510Z,79.35
2023-01-30T01:46:56.280Z,79.14
2023-01-30T01:47:56.261Z,79.21
2023-01-30T01:48:56.243Z,79.76
2023-01-30T01:49:56.232Z,79.10
2023-01-30T01:50:56.256Z,79.31
2023-01-30T01:51:56.223Z,79.41
2023-01-30T01:52:56.201Z,79.31
2023-01-30T01:53:56.191Z,79.41
2023-01-30T01:54:56.185Z,79.31
2023-01-30T01:55:56.197Z,79.31
2023-01-30T01:56:56.167Z,78.89
2023-01-30T01:57:56.145Z,78.93
2023-01-30T01:58:56.144Z,79.55
2023-01-30T01:59:56.122Z,79.62
2023-01-30T02:00:56.184Z,79.94
2023-01-30T02:01:56.194Z,81.29
2023-01-30T02:02:56.099Z,81.91
2023-01-30T02:03:56.077Z,82.15
2023-01-30T02:04:56.067Z,82.32
2023-01-30T02:05:56.054Z,82.95
2023-01-30T02:06:56.062Z,83.78
2023-01-30T02:07:56.054Z,83.58
2023-01-30T02:08:56.041Z,84.61
2023-01-30T02:09:56.042Z,84.65
2023-01-30T02:10:56.009Z,84.96
2023-01-30T02:11:56.001Z,85.13
2023-01-30T02:12:56.007Z,85.80
2023-01-30T02:13:55.999Z,86.52
2023-01-30T02:14:55.972Z,86.88
2023-01-30T02:15:55.964Z,87.08
2023-01-30T02:16:55.942Z,88.12
2023-01-30T02:17:55.959Z,88.43
2023-01-30T02:18:55.932Z,88.85
2023-01-30T02:19:55.935Z,88.96
2023-01-30T02:20:55.903Z,88.96
2023-01-30T02:21:55.888Z,88.75
2023-01-30T02:22:55.902Z,88.75
2023-01-30T02:23:55.869Z,88.85
2023-01-30T02:24:55.860Z,88.85
2023-01-30T02:25:56.606Z,88.85
2023-01-30T02:26:55.844Z,88.75
2023-01-30T02:27:55.852Z,88.75
2023-01-30T02:28:55.828Z,88.75
2023-01-30T02:29:55.831Z,88.75
2023-01-30T02:30:55.903Z,88.96
2023-01-30T02:31:55.807Z,89.17
2023-01-30T02:32:55.786Z,88.75
2023-01-30T02:33:55.768Z,89.27
2023-01-30T02:34:55.759Z,88.64
2023-01-30T02:35:55.793Z,88.75
2023-01-30T02:36:55.751Z,88.96
2023-01-30T02:37:55.721Z,89.17
2023-01-30T02:38:55.711Z,88.64
2023-01-30T02:39:55.717Z,88.33
2023-01-30T02:40:55.705Z,88.54
2023-01-30T02:41:55.689Z,88.64
2023-01-30T02:42:55.679Z,89.06
2023-01-30T02:43:55.679Z,89.06
2023-01-30T02:44:55.653Z,88.96
2023-01-30T02:45:55.725Z,88.81
2023-01-30T02:46:55.635Z,89.75
2023-01-30T02:47:55.626Z,90.72
2023-01-30T02:48:55.615Z,90.72
2023-01-30T02:49:55.605Z,90.72
2023-01-30T02:50:55.604Z,91.04
2023-01-30T02:51:55.578Z,91.66
2023-01-30T02:52:55.572Z,91.35
2023-01-30T02:53:55.563Z,91.77
2023-01-30T02:54:55.548Z,91.39
2023-01-30T02:55:55.536Z,91.97
2023-01-30T02:56:55.550Z,91.97
2023-01-30T02:57:55.511Z,92.43
2023-01-30T02:58:55.509Z,92.12
2023-01-30T02:59:55.496Z,92.22
2023-01-30T03:00:55.617Z,92.02
2023-01-30T03:01:55.488Z,91.91
2023-01-30T03:02:55.465Z,92.02
2023-01-30T03:03:55.458Z,92.02
2023-01-30T03:04:55.438Z,92.02
2023-01-30T03:05:55.453Z,92.02
2023-01-30T03:06:55.434Z,91.50
2023-01-30T03:07:55.417Z,91.91
2023-01-30T03:08:55.410Z,91.39
2023-01-30T03:09:55.389Z,91.81
2023-01-30T03:10:55.375Z,92.02
2023-01-30T03:11:55.387Z,91.97
2023-01-30T03:12:55.378Z,91.77
2023-01-30T03:13:55.360Z,91.35
2023-01-30T03:14:55.347Z,91.46
2023-01-30T03:15:55.363Z,91.50
2023-01-30T03:16:55.315Z,91.35
2023-01-30T03:17:55.321Z,90.83
2023-01-30T03:18:55.305Z,90.93
2023-01-30T03:19:55.295Z,90.69
2023-01-30T03:20:55.290Z,90.62
2023-01-30T03:21:55.270Z,90.31
2023-01-30T03:22:55.269Z,90.69
2023-01-30T03:23:55.252Z,90.58
2023-01-30T03:24:55.236Z,90.41
2023-01-30T03:25:55.225Z,89.85
2023-01-30T03:26:55.220Z,89.89
2023-01-30T03:27:55.208Z,89.85
2023-01-30T03:28:55.225Z,89.17
2023-01-30T03:29:55.177Z,89.23
2023-01-30T03:30:55.267Z,89.64
2023-01-30T03:31:55.239Z,89.27
2023-01-30T03:32:55.149Z,89.06
2023-01-30T03:33:55.148Z,90.10
2023-01-30T03:34:55.145Z,90.00
2023-01-30T03:35:55.124Z,89.75
2023-01-30T03:36:55.130Z,90.31
2023-01-30T03:37:55.093Z,90.16
2023-01-30T03:38:55.085Z,90.37
2023-01-30T03:39:55.105Z,89.79
2023-01-30T03:40:55.073Z,90.26
2023-01-30T03:41:55.068Z,90.16
2023-01-30T03:42:55.050Z,90.26
2023-01-30T03:43:55.039Z,90.47
2023-01-30T03:44:55.061Z,90.16
2023-01-30T03:45:55.036Z,90.26
2023-01-30T03:46:54.998Z,89.81
2023-01-30T03:47:55.013Z,89.85
2023-01-30T03:48:54.986Z,90.02
2023-01-30T03:49:54.977Z,91.00
2023-01-30T03:50:54.978Z,90.23
2023-01-30T03:51:54.953Z,90.75
2023-01-30T03:52:54.949Z,90.64
2023-01-30T03:53:54.943Z,90.33
2023-01-30T03:54:54.921Z,90.44
2023-01-30T03:55:54.932Z,90.64
2023-01-30T03:56:54.921Z,90.85
2023-01-30T03:57:54.895Z,91.37
2023-01-30T03:58:54.898Z,90.85
2023-01-30T03:59:54.863Z,90.85
2023-01-30T04:00:56.075Z,90.85
2023-01-30T04:01:54.841Z,90.95
2023-01-30T04:02:54.859Z,90.37
2023-01-30T04:03:54.824Z,90.79
2023-01-30T04:04:54.815Z,90.85
2023-01-30T04:05:54.802Z,90.44
2023-01-30T04:06:54.802Z,90.16
2023-01-30T04:07:54.784Z,90.58
2023-01-30T04:08:54.767Z,90.37
2023-01-30T04:09:54.767Z,89.85
2023-01-30T04:10:54.762Z,89.60
2023-01-30T04:11:54.735Z,90.16
2023-01-30T04:12:54.744Z,89.64
2023-01-30T04:13:54.715Z,90.12
2023-01-30T04:14:54.702Z,90.44
2023-01-30T04:15:54.699Z,90.33
2023-01-30T04:16:54.730Z,89.92
2023-01-30T04:17:54.698Z,89.08
2023-01-30T04:18:54.672Z,89.60
2023-01-30T04:19:54.658Z,88.87
2023-01-30T04:20:54.651Z,88.67
2023-01-30T04:21:54.639Z,88.87
2023-01-30T04:22:54.633Z,88.25
2023-01-30T04:23:54.633Z,88.67
2023-01-30T04:24:54.600Z,88.67
2023-01-30T04:25:54.596Z,88.56
2023-01-30T04:26:54.608Z,88.56
2023-01-30T04:27:54.578Z,88.31
2023-01-30T04:28:54.557Z,88.62
2023-01-30T04:29:54.555Z,88.94
2023-01-30T04:30:54.639Z,89.04
2023-01-30T04:31:54.525Z,88.10
2023-01-30T04:32:54.565Z,88.00
2023-01-30T04:33:54.544Z,87.90
2023-01-30T04:34:54.493Z,87.90
2023-01-30T04:35:54.491Z,87.96
2023-01-30T04:36:54.481Z,87.45
2023-01-30T04:37:54.471Z,86.93
2023-01-30T04:38:54.449Z,86.82
2023-01-30T04:39:54.456Z,87.03
2023-01-30T04:40:54.428Z,87.03
2023-01-30T04:41:54.421Z,86.51
2023-01-30T04:42:54.417Z,86.72
2023-01-30T04:43:54.413Z,86.51
2023-01-30T04:44:54.395Z,86.72
2023-01-30T04:45:54.390Z,87.24
2023-01-30T04:46:54.368Z,86.61
2023-01-30T04:47:54.359Z,86.82
2023-01-30T04:48:54.357Z,86.93
2023-01-30T04:49:54.343Z,88.17
2023-01-30T04:50:54.350Z,88.28
2023-01-30T04:51:54.313Z,88.38
2023-01-30T04:52:54.300Z,87.86
2023-01-30T04:53:54.295Z,88.38
2023-01-30T04:54:54.290Z,88.69
2023-01-30T04:55:54.305Z,88.59
2023-01-30T04:56:54.258Z,88.59
2023-01-30T04:57:54.255Z,88.48
2023-01-30T04:58:54.238Z,88.79
2023-01-30T04:59:54.244Z,88.69
2023-01-30T05:00:54.264Z,88.59
2023-01-30T05:01:54.278Z,89.00
2023-01-30T05:02:54.200Z,89.52
2023-01-30T05:03:54.192Z,90.25
2023-01-30T05:04:54.195Z,90.14
2023-01-30T05:05:54.171Z,90.14
2023-01-30T05:06:54.146Z,90.52
2023-01-30T05:07:54.154Z,90.45
2023-01-30T05:08:54.130Z,90.66
2023-01-30T05:09:54.123Z,91.49
2023-01-30T05:10:54.105Z,91.80
2023-01-30T05:11:54.121Z,92.11
2023-01-30T05:12:54.084Z,91.49
2023-01-30T05:13:54.078Z,91.80
2023-01-30T05:14:54.070Z,91.49
2023-01-30T05:15:54.065Z,92.43
2023-01-30T05:16:54.068Z,92.22
2023-01-30T05:17:54.043Z,93.10
2023-01-30T05:18:54.042Z,92.84
2023-01-30T05:19:54.015Z,93.47
2023-01-30T05:20:54.019Z,93.78
2023-01-30T05:21:54.005Z,93.51
2023-01-30T05:22:53.989Z,93.72
2023-01-30T05:23:53.987Z,94.76
2023-01-30T05:24:53.959Z,94.45
2023-01-30T05:25:53.978Z,94.55
2023-01-30T05:26:53.944Z,94.96
2023-01-30T05:27:53.930Z,94.96
2023-01-30T05:28:53.926Z,94.86
2023-01-30T05:29:53.904Z,94.45
2023-01-30T05:30:53.936Z,94.70
2023-01-30T05:31:53.905Z,95.07
2023-01-30T05:32:53.895Z,94.45
2023-01-30T05:33:53.883Z,95.21
2023-01-30T05:34:53.873Z,95.42
2023-01-30T05:35:53.852Z,95.11
2023-01-30T05:36:53.877Z,95.11
2023-01-30T05:37:53.818Z,94.90
2023-01-30T05:38:53.836Z,94.34
2023-01-30T05:40:02.865Z,95.01
2023-01-30T05:40:53.788Z,94.70
2023-01-30T05:41:53.774Z,95.38
2023-01-30T05:42:53.774Z,95.28
2023-01-30T05:43:53.787Z,95.53
2023-01-30T05:44:53.747Z,94.70
2023-01-30T05:45:53.737Z,94.86
2023-01-30T05:46:53.802Z,95.48
2023-01-30T05:47:56.414Z,95.69
2023-01-30T05:48:53.708Z,95.84
2023-01-30T05:49:53.716Z,96.11
2023-01-30T05:50:53.676Z,95.53
2023-01-30T05:51:53.676Z,95.48
2023-01-30T05:52:53.684Z,95.84
2023-01-30T05:53:53.662Z,95.79
2023-01-30T05:54:53.644Z,95.42
2023-01-30T05:55:53.633Z,95.90
2023-01-30T05:56:53.620Z,96.15
2023-01-30T05:57:53.604Z,96.11
2023-01-30T05:58:53.614Z,96.31
2023-01-30T05:59:53.619Z,96.21
2023-01-30T06:00:53.587Z,95.94
2023-01-30T06:01:53.570Z,96.31
2023-01-30T06:02:53.623Z,96.21
2023-01-30T06:03:53.605Z,96.25
2023-01-30T06:04:53.567Z,96.15
2023-01-30T06:05:53.552Z,96.25
2023-01-30T06:06:53.550Z,96.00
2023-01-30T06:07:53.501Z,95.90
2023-01-30T06:08:53.520Z,96.21
2023-01-30T06:09:53.486Z,95.69
2023-01-30T06:10:53.492Z,95.69
2023-01-30T06:11:53.477Z,95.69
2023-01-30T06:12:53.467Z,95.84
2023-01-30T06:13:53.487Z,96.21
2023-01-30T06:14:53.432Z,95.90
2023-01-30T06:15:53.533Z,96.11
2023-01-30T06:16:53.485Z,95.79
2023-01-30T06:17:53.403Z,96.42
2023-01-30T06:18:53.469Z,96.21
2023-01-30T06:19:53.385Z,96.11
2023-01-30T06:20:53.369Z,96.11
2023-01-30T06:21:53.381Z,95.59
2023-01-30T06:22:53.391Z,95.48
2023-01-30T06:23:53.350Z,96.11
2023-01-30T06:24:53.340Z,95.75
2023-01-30T06:25:53.317Z,95.75
2023-01-30T06:26:53.871Z,95.28
2023-01-30T06:27:53.331Z,95.79
2023-01-30T06:28:53.291Z,95.48
2023-01-30T06:29:53.270Z,96.06
2023-01-30T06:30:53.372Z,96.06
2023-01-30T06:31:53.254Z,95.75
2023-01-30T06:32:53.235Z,96.06
2023-01-30T06:33:53.247Z,95.44
2023-01-30T06:34:53.226Z,95.75
2023-01-30T06:35:53.283Z,95.65
2023-01-30T06:36:53.191Z,95.54
2023-01-30T06:37:53.179Z,95.61
2023-01-30T06:38:53.182Z,95.71
2023-01-30T06:39:53.182Z,95.81
2023-01-30T06:40:53.178Z,95.29
2023-01-30T06:41:53.143Z,94.57
2023-01-30T06:42:53.157Z,94.98
2023-01-30T06:43:53.124Z,95.34
2023-01-30T06:44:53.127Z,94.98
2023-01-30T06:45:53.197Z,95.40
2023-01-30T06:46:53.083Z,94.78
2023-01-30T06:47:53.127Z,94.57
2023-01-30T06:48:53.067Z,94.98
2023-01-30T06:49:53.061Z,94.78
2023-01-30T06:50:53.059Z,94.57
2023-01-30T06:51:53.062Z,94.46
2023-01-30T06:52:53.041Z,94.21
2023-01-30T06:53:53.426Z,94.88
2023-01-30T06:54:53.019Z,94.36
2023-01-30T06:55:52.993Z,94.67
2023-01-30T06:56:53.007Z,94.46
2023-01-30T06:57:52.973Z,94.36
2023-01-30T06:58:52.959Z,94.46
2023-01-30T06:59:52.951Z,94.63
2023-01-30T07:00:52.945Z,94.32
2023-01-30T07:01:52.983Z,94.32
2023-01-30T07:02:52.911Z,94.21
2023-01-30T07:03:52.965Z,94.42
2023-01-30T07:04:52.902Z,94.84
2023-01-30T07:05:52.975Z,94.32
2023-01-30T07:06:52.887Z,94.73
2023-01-30T07:07:52.864Z,95.04
2023-01-30T07:08:52.850Z,95.83
2023-01-30T07:10:06.996Z,95.62
2023-01-30T07:10:53.882Z,95.62
2023-01-30T07:11:52.824Z,95.41
2023-01-30T07:12:52.838Z,96.14
2023-01-30T07:13:52.866Z,95.93
2023-01-30T07:14:52.797Z,95.72
2023-01-30T07:15:52.825Z,96.03
2023-01-30T07:16:52.815Z,96.14
2023-01-30T07:17:52.963Z,96.41
2023-01-30T07:18:52.754Z,96.34
2023-01-30T07:19:52.743Z,96.03
2023-01-30T07:20:52.822Z,95.99
2023-01-30T07:21:52.734Z,96.20
2023-01-30T07:22:53.333Z,95.89
2023-01-30T07:23:52.703Z,95.89
2023-01-30T07:24:52.752Z,95.99
2023-01-30T07:25:52.708Z,95.78
2023-01-30T07:26:52.712Z,96.09
2023-01-30T07:27:52.698Z,96.41
2023-01-30T07:28:52.784Z,95.68
2023-01-30T07:29:53.404Z,96.09
2023-01-30T07:30:52.785Z,96.09
2023-01-30T07:31:52.713Z,95.57
2023-01-30T07:32:52.608Z,96.51
2023-01-30T07:33:52.648Z,95.57
2023-01-30T07:34:52.590Z,95.89
2023-01-30T07:35:52.582Z,95.74
2023-01-30T07:36:52.734Z,96.30
2023-01-30T07:37:52.660Z,95.95
2023-01-30T07:38:52.551Z,95.74
2023-01-30T07:39:52.526Z,95.95
2023-01-30T07:40:52.518Z,95.95
2023-01-30T07:41:52.502Z,95.84
2023-01-30T07:42:52.491Z,95.95
2023-01-30T07:43:52.507Z,95.74
2023-01-30T07:44:52.511Z,96.05
2023-01-30T07:45:52.485Z,95.28
2023-01-30T07:46:52.484Z,96.52
2023-01-30T07:47:52.434Z,95.80
2023-01-30T07:48:52.441Z,95.90
2023-01-30T07:49:52.422Z,95.70
2023-01-30T07:50:52.427Z,95.65
2023-01-30T07:51:52.455Z,95.90
2023-01-30T07:52:52.396Z,96.11
2023-01-30T07:53:52.407Z,96.21
2023-01-30T07:54:52.417Z,95.90
2023-01-30T07:55:52.365Z,96.31
2023-01-30T07:56:52.339Z,96.62
2023-01-30T07:57:52.344Z,96.31
2023-01-30T07:58:52.369Z,96.11
2023-01-30T07:59:52.316Z,96.31
2023-01-30T08:00:52.365Z,96.21
2023-01-30T08:01:52.287Z,96.73
2023-01-30T08:02:52.286Z,96.42
2023-01-30T08:03:52.281Z,96.52
2023-01-30T08:04:52.366Z,96.11
2023-01-30T08:05:52.259Z,96.31
2023-01-30T08:06:52.877Z,96.11
2023-01-30T08:07:52.233Z,96.37
2023-01-30T08:08:52.218Z,96.48
2023-01-30T08:09:52.249Z,96.69
2023-01-30T08:10:52.191Z,96.54
2023-01-30T08:11:52.189Z,96.06
2023-01-30T08:12:52.186Z,96.48
2023-01-30T08:13:52.176Z,96.48
2023-01-30T08:14:52.178Z,96.58
2023-01-30T08:15:52.170Z,96.17
2023-01-30T08:16:52.255Z,96.06
2023-01-30T08:17:52.145Z,96.48
2023-01-30T08:18:52.246Z,96.58
2023-01-30T08:19:52.422Z,96.69
2023-01-30T08:20:52.305Z,96.95
2023-01-30T08:21:52.133Z,96.85
2023-01-30T08:22:52.856Z,96.64
2023-01-30T08:23:52.273Z,96.95
2023-01-30T08:24:52.196Z,96.85
2023-01-30T08:25:52.651Z,96.64
2023-01-30T08:26:52.871Z,96.58
2023-01-30T08:27:52.130Z,97.16
2023-01-30T08:28:52.136Z,96.75
2023-01-30T08:29:52.015Z,96.64
2023-01-30T08:30:52.116Z,96.69
2023-01-30T08:31:52.024Z,96.48
2023-01-30T08:32:51.977Z,96.37
2023-01-30T08:33:51.967Z,96.44
2023-01-30T08:34:51.965Z,96.54
2023-01-30T08:35:51.943Z,96.33
2023-01-30T08:36:51.951Z,96.44
2023-01-30T08:37:51.951Z,96.12
2023-01-30T08:38:51.909Z,96.23
2023-01-30T08:39:51.904Z,96.44
2023-01-30T08:40:51.894Z,96.23
2023-01-30T08:41:51.901Z,95.92
2023-01-30T08:42:51.858Z,96.23
2023-01-30T08:43:51.857Z,96.12
2023-01-30T08:44:51.839Z,95.56
2023-01-30T08:45:51.846Z,95.77
2023-01-30T08:46:51.842Z,95.87
2023-01-30T08:47:51.842Z,95.77
2023-01-30T08:48:51.827Z,95.71
2023-01-30T08:49:51.786Z,95.56
2023-01-30T08:50:51.772Z,95.36
2023-01-30T08:51:51.782Z,94.32
2023-01-30T08:52:52.256Z,94.73
2023-01-30T08:53:51.916Z,94.63
2023-01-30T08:54:51.739Z,94.59
2023-01-30T08:55:51.773Z,94.28
2023-01-30T08:56:51.781Z,93.97
2023-01-30T08:57:51.763Z,93.45
2023-01-30T08:58:51.739Z,94.38
2023-01-30T08:59:51.673Z,94.28
2023-01-30T09:00:52.442Z,94.13
2023-01-30T09:01:51.695Z,93.30
2023-01-30T09:02:52.495Z,93.30
2023-01-30T09:03:51.895Z,92.44
2023-01-30T09:04:51.660Z,92.54
2023-01-30T09:05:51.627Z,92.13
2023-01-30T09:06:51.712Z,91.56
2023-01-30T09:07:51.628Z,91.89
2023-01-30T09:08:51.589Z,90.57
2023-01-30T09:09:51.584Z,90.06
2023-01-30T09:10:51.577Z,88.92
2023-01-30T09:11:51.567Z,88.31
2023-01-30T09:12:51.550Z,88.10
2023-01-30T09:13:51.559Z,87.42
2023-01-30T09:14:51.557Z,87.93
2023-01-30T09:15:51.511Z,87.87
2023-01-30T09:16:51.553Z,87.98
2023-01-30T09:17:51.490Z,88.12
2023-01-30T09:18:51.476Z,88.22
2023-01-30T09:19:51.478Z,88.32
2023-01-30T09:20:52.793Z,87.92
2023-01-30T09:21:51.456Z,88.74
2023-01-30T09:22:51.446Z,89.05
2023-01-30T09:23:51.458Z,88.43
2023-01-30T09:24:51.443Z,88.43
2023-01-30T09:25:51.415Z,89.11
2023-01-30T09:26:51.399Z,89.22
2023-01-30T09:27:51.386Z,88.18
2023-01-30T09:28:51.414Z,88.18
2023-01-30T09:29:51.366Z,88.12
2023-01-30T09:30:51.442Z,88.18
2023-01-30T09:31:51.354Z,88.59
2023-01-30T09:32:51.326Z,88.18
2023-01-30T09:33:51.318Z,88.08
2023-01-30T09:34:51.334Z,87.87
2023-01-30T09:35:51.345Z,87.66
2023-01-30T09:36:51.318Z,87.98
2023-01-30T09:37:51.288Z,87.56
2023-01-30T09:38:51.273Z,87.56
2023-01-30T09:39:51.260Z,88.29
2023-01-30T09:40:51.278Z,87.92
2023-01-30T09:41:51.241Z,88.18
2023-01-30T09:42:51.236Z,88.18
2023-01-30T09:43:51.223Z,87.56
2023-01-30T09:44:51.226Z,88.49
2023-01-30T09:45:51.246Z,87.56
2023-01-30T09:46:51.203Z,87.66
2023-01-30T09:47:51.176Z,87.83
2023-01-30T09:48:51.165Z,87.42
2023-01-30T09:49:51.170Z,87.63
2023-01-30T09:50:51.170Z,87.90
2023-01-30T09:51:51.139Z,86.82
2023-01-30T09:52:51.148Z,86.45
2023-01-30T09:53:51.101Z,86.45
2023-01-30T09:54:51.102Z,86.24
2023-01-30T09:55:51.093Z,86.45
2023-01-30T09:56:51.093Z,86.41
2023-01-30T09:57:51.065Z,86.24
2023-01-30T09:58:51.085Z,85.94
2023-01-30T09:59:51.029Z,85.89
2023-01-30T10:00:51.027Z,85.79
2023-01-30T10:01:51.038Z,86.00
2023-01-30T10:02:51.018Z,85.59
2023-01-30T10:03:51.025Z,84.87
2023-01-30T10:05:00.974Z,84.97
2023-01-30T10:05:52.005Z,85.22
2023-01-30T10:06:50.968Z,84.87
2023-01-30T10:07:51.015Z,85.22
2023-01-30T10:08:50.975Z,85.63
2023-01-30T10:09:50.990Z,85.22
2023-01-30T10:11:00.737Z,84.97
2023-01-30T10:11:51.923Z,84.77
2023-01-30T10:12:50.917Z,84.97
2023-01-30T10:13:50.922Z,84.14
2023-01-30T10:14:50.897Z,82.60
2023-01-30T10:15:50.935Z,82.91
2023-01-30T10:16:50.924Z,82.50
2023-01-30T10:17:50.860Z,82.50
2023-01-30T10:18:50.840Z,82.19
2023-01-30T10:19:50.848Z,81.43
2023-01-30T10:20:50.864Z,82.05
2023-01-30T10:21:50.841Z,81.43
2023-01-30T10:22:50.805Z,81.53
2023-01-30T10:23:50.795Z,81.43
2023-01-30T10:24:50.894Z,81.33
2023-01-30T10:25:50.798Z,81.43
2023-01-30T10:26:50.884Z,81.39
2023-01-30T10:27:50.763Z,80.77
2023-01-30T10:28:58.853Z,79.61
2023-01-30T10:29:51.765Z,78.44
2023-01-30T10:30:50.810Z,78.36
2023-01-30T10:31:50.752Z,77.51
2023-01-30T10:32:50.706Z,75.76
2023-01-30T10:33:50.719Z,75.42
2023-01-30T10:34:50.735Z,74.70
2023-01-30T10:35:50.688Z,75.21
2023-01-30T10:36:50.733Z,75.32
2023-01-30T10:37:50.677Z,74.29
2023-01-30T10:38:50.669Z,74.49
2023-01-30T10:39:55.169Z,74.53
2023-01-30T10:40:50.611Z,74.22
2023-01-30T10:41:50.594Z,74.02
2023-01-30T10:42:50.681Z,74.05
2023-01-30T10:43:50.604Z,74.57
2023-01-30T10:44:50.569Z,73.78
2023-01-30T10:45:50.555Z,74.19
2023-01-30T10:46:50.652Z,74.40
2023-01-30T10:47:50.545Z,74.60
2023-01-30T10:48:50.549Z,74.43
2023-01-30T10:49:50.539Z,74.84
2023-01-30T10:50:51.386Z,75.59
2023-01-30T10:51:50.502Z,75.70
2023-01-30T10:52:50.471Z,75.49
2023-01-30T10:53:50.503Z,74.87
2023-01-30T10:54:50.469Z,74.98
2023-01-30T10:55:50.473Z,74.91
2023-01-30T10:56:50.449Z,75.52
2023-01-30T10:57:50.480Z,76.14
2023-01-30T10:58:50.407Z,75.73
2023-01-30T10:59:50.416Z,75.52
2023-01-30T11:00:50.484Z,76.04
2023-01-30T11:01:50.454Z,76.04
2023-01-30T11:02:51.791Z,75.52
2023-01-30T11:03:50.353Z,76.04
2023-01-30T11:04:50.375Z,76.04
2023-01-30T11:05:50.330Z,75.01
2023-01-30T11:06:50.360Z,75.01
2023-01-30T11:07:50.314Z,75.01
2023-01-30T11:08:50.302Z,75.63
2023-01-30T11:09:50.300Z,74.91
2023-01-30T11:10:50.310Z,75.63
2023-01-30T11:11:50.295Z,75.52
2023-01-30T11:12:50.279Z,75.73
2023-01-30T11:13:50.283Z,75.52
2023-01-30T11:14:50.254Z,75.70
2023-01-30T11:15:50.246Z,75.80
2023-01-30T11:16:50.229Z,75.84
2023-01-30T11:17:50.229Z,75.49
2023-01-30T11:19:18.742Z,75.39
2023-01-30T11:19:51.182Z,74.77
2023-01-30T11:20:50.162Z,74.02
2023-01-30T11:21:50.200Z,73.50
2023-01-30T11:22:50.171Z,73.81
2023-01-30T11:23:50.159Z,74.02
2023-01-30T11:24:50.138Z,74.05
2023-01-30T11:25:59.230Z,73.19
2023-01-30T11:26:51.169Z,73.40
2023-01-30T11:27:50.092Z,74.33
2023-01-30T11:28:50.144Z,73.91
2023-01-30T11:29:50.082Z,73.09
2023-01-30T11:30:50.070Z,73.91
2023-01-30T11:31:50.172Z,73.81
2023-01-30T11:32:50.062Z,72.89
2023-01-30T11:33:50.029Z,73.61
2023-01-30T11:34:50.016Z,74.02
2023-01-30T11:35:50.014Z,73.91
2023-01-30T11:36:49.991Z,73.78
2023-01-30T11:37:50.034Z,73.98
2023-01-30T11:38:49.972Z,72.78
2023-01-30T11:39:49.955Z,73.50
2023-01-30T11:40:49.966Z,72.99
2023-01-30T11:41:49.969Z,73.16
2023-01-30T11:42:49.932Z,72.99
2023-01-30T11:43:49.948Z,74.05
2023-01-30T11:44:49.923Z,73.23
2023-01-30T11:45:49.989Z,73.78
2023-01-30T11:46:49.897Z,74.50
2023-01-30T11:47:57.850Z,75.49
2023-01-30T11:49:02.596Z,75.29
2023-01-30T11:49:52.633Z,76.01
2023-01-30T11:50:50.908Z,75.80
2023-01-30T11:51:49.825Z,75.29
2023-01-30T11:52:49.847Z,74.87
2023-01-30T11:53:49.887Z,75.08
2023-01-30T11:54:49.811Z,74.12
2023-01-30T11:56:02.155Z,74.15
2023-01-30T11:56:50.807Z,73.85
2023-01-30T11:57:49.852Z,73.54
2023-01-30T11:58:49.783Z,74.36
2023-01-30T11:59:49.754Z,74.36
2023-01-30T12:00:49.749Z,74.36
2023-01-30T12:01:49.757Z,74.46
2023-01-30T12:02:50.439Z,74.57
2023-01-30T12:03:49.744Z,74.36
2023-01-30T12:04:49.694Z,73.85
2023-01-30T12:05:49.689Z,74.57
2023-01-30T12:06:49.685Z,75.80
2023-01-30T12:07:49.668Z,75.49
2023-01-30T12:08:49.684Z,75.90
2023-01-30T12:09:49.646Z,76.73
2023-01-30T12:10:49.639Z,78.17
2023-01-30T12:11:49.626Z,78.61
2023-01-30T12:12:49.607Z,77.89
2023-01-30T12:13:49.601Z,78.41
2023-01-30T12:14:49.635Z,79.79
2023-01-30T12:15:49.567Z,79.23
2023-01-30T12:16:49.578Z,79.79
2023-01-30T12:17:49.552Z,79.79
2023-01-30T12:18:49.555Z,80.91
2023-01-30T12:19:49.562Z,80.26
2023-01-30T12:20:49.523Z,80.05
2023-01-30T12:21:49.504Z,79.85
2023-01-30T12:22:49.525Z,79.61
2023-01-30T12:23:49.510Z,79.77
2023-01-30T12:24:49.502Z,79.53
2023-01-30T12:25:49.464Z,79.43
2023-01-30T12:26:49.532Z,79.39
2023-01-30T12:27:49.456Z,78.36
2023-01-30T12:28:49.771Z,76.93
2023-01-30T12:29:49.517Z,76.89
2023-01-30T12:30:49.423Z,75.59
2023-01-30T12:31:49.444Z,75.80
2023-01-30T12:32:49.424Z,75.63
2023-01-30T12:33:49.395Z,75.12
2023-01-30T12:34:49.422Z,75.42
2023-01-30T12:35:49.403Z,75.93
2023-01-30T12:36:49.360Z,75.42
2023-01-30T12:37:49.330Z,75.76
2023-01-30T12:38:49.341Z,75.83
2023-01-30T12:39:49.335Z,75.42
2023-01-30T12:40:49.304Z,74.29
2023-01-30T12:41:49.304Z,74.22
2023-01-30T12:42:49.282Z,74.43
2023-01-30T12:43:49.291Z,74.43
2023-01-30T12:44:49.317Z,74.74
2023-01-30T12:45:49.293Z,74.22
2023-01-30T12:46:49.272Z,74.53
2023-01-30T12:47:49.241Z,75.42
2023-01-30T12:49:07.889Z,75.46
2023-01-30T12:49:50.246Z,75.76
2023-01-30T12:50:49.245Z,76.07
2023-01-30T12:51:49.250Z,76.28
2023-01-30T12:52:49.226Z,75.97
2023-01-30T12:53:49.166Z,75.35